TTW168 RCTP-RJNK
Flight info
| Callsign | TTW168 |
|---|---|
| Flight time | N/A |
| Altitude | 39000 |
| Route | MOLKA1A MOLKA M750 MOMPA Y451 HKC Y45 SONBU SONBUE |
| Aircraft | A20N/M-SDE2E3FGHIRWXY/LB1 |
Departure
| Time | N/A |
|---|---|
| Airport | Taiwan Taoyuan International Airport (RCTP) |
Arrival
| Time | 2026-05-03 22:12 |
|---|---|
| Airport | Komatsu Airport / JASDF Komatsu Air Base (RJNK) |
| Time | Latitude | Longitude | Altitude | Speed | Heading |
|---|---|---|---|---|---|
| 2026-05-03 20:15 | 26.94468 | 124.38375 | 39060 ft | 506 kts | 45° |
| 2026-05-03 20:15 | 26.98969 | 124.44442 | 39059 ft | 506 kts | 45° |
| 2026-05-03 20:16 | 27.03469 | 124.50514 | 39061 ft | 505 kts | 45° |
| 2026-05-03 20:16 | 27.07948 | 124.56566 | 39063 ft | 504 kts | 45° |
| 2026-05-03 20:17 | 27.12433 | 124.62634 | 39059 ft | 504 kts | 45° |
| 2026-05-03 20:17 | 27.16905 | 124.68692 | 39057 ft | 504 kts | 45° |
| 2026-05-03 20:18 | 27.21379 | 124.74763 | 39060 ft | 504 kts | 45° |
| 2026-05-03 20:18 | 27.25820 | 124.80796 | 39057 ft | 504 kts | 45° |
| 2026-05-03 20:19 | 27.30288 | 124.86876 | 39058 ft | 504 kts | 45° |
| 2026-05-03 20:19 | 27.34754 | 124.92961 | 39057 ft | 503 kts | 45° |
| 2026-05-03 20:20 | 27.39212 | 124.99043 | 39055 ft | 504 kts | 45° |
| 2026-05-03 20:20 | 27.43687 | 125.05105 | 39065 ft | 504 kts | 45° |
| 2026-05-03 20:21 | 27.48189 | 125.11170 | 39052 ft | 504 kts | 45° |
| 2026-05-03 20:21 | 27.52669 | 125.17214 | 39058 ft | 504 kts | 45° |
| 2026-05-03 20:22 | 27.57140 | 125.23260 | 39062 ft | 504 kts | 45° |
| 2026-05-03 20:22 | 27.61629 | 125.29342 | 39055 ft | 505 kts | 45° |
| 2026-05-03 20:23 | 27.66123 | 125.35441 | 39063 ft | 506 kts | 45° |
| 2026-05-03 20:23 | 27.70616 | 125.41546 | 39057 ft | 506 kts | 45° |
| 2026-05-03 20:24 | 27.75114 | 125.47667 | 39059 ft | 506 kts | 45° |
| 2026-05-03 20:24 | 27.79607 | 125.53790 | 39061 ft | 507 kts | 45° |
| 2026-05-03 20:25 | 27.84108 | 125.59933 | 39060 ft | 507 kts | 45° |
| 2026-05-03 20:25 | 27.88600 | 125.66071 | 39061 ft | 507 kts | 45° |
| 2026-05-03 20:26 | 27.93096 | 125.72224 | 39059 ft | 507 kts | 45° |
| 2026-05-03 20:26 | 27.97590 | 125.78383 | 39058 ft | 508 kts | 45° |
| 2026-05-03 20:27 | 28.01330 | 125.83515 | 39054 ft | 508 kts | 45° |
| 2026-05-03 20:27 | 28.05832 | 125.89703 | 39058 ft | 509 kts | 45° |
| 2026-05-03 20:28 | 28.10329 | 125.95892 | 39051 ft | 509 kts | 46° |
| 2026-05-03 20:28 | 28.14834 | 126.02100 | 39052 ft | 509 kts | 46° |
| 2026-05-03 20:29 | 28.19336 | 126.08314 | 39056 ft | 510 kts | 46° |
| 2026-05-03 20:29 | 28.23821 | 126.14513 | 39054 ft | 511 kts | 46° |
| 2026-05-03 20:30 | 28.28339 | 126.20767 | 39051 ft | 512 kts | 46° |
| 2026-05-03 20:30 | 28.32852 | 126.27023 | 39047 ft | 513 kts | 46° |
| 2026-05-03 20:31 | 28.37344 | 126.33261 | 39049 ft | 513 kts | 46° |
| 2026-05-03 20:31 | 28.41867 | 126.39550 | 39053 ft | 514 kts | 46° |
| 2026-05-03 20:32 | 28.46391 | 126.45849 | 39052 ft | 514 kts | 46° |
| 2026-05-03 20:32 | 28.50912 | 126.52154 | 39051 ft | 515 kts | 46° |
| 2026-05-03 20:33 | 28.55448 | 126.58489 | 39050 ft | 516 kts | 46° |
| 2026-05-03 20:33 | 28.59988 | 126.64841 | 39052 ft | 517 kts | 46° |
| 2026-05-03 20:34 | 28.64504 | 126.71167 | 39046 ft | 518 kts | 46° |
| 2026-05-03 20:34 | 28.69047 | 126.77541 | 39042 ft | 519 kts | 46° |
| 2026-05-03 20:35 | 28.73591 | 126.83926 | 39046 ft | 519 kts | 46° |
| 2026-05-03 20:35 | 28.78138 | 126.90326 | 39045 ft | 519 kts | 46° |
| 2026-05-03 20:36 | 28.82678 | 126.96726 | 39044 ft | 519 kts | 46° |
| 2026-05-03 20:36 | 28.87221 | 127.03139 | 39045 ft | 520 kts | 46° |
| 2026-05-03 20:37 | 28.91760 | 127.09558 | 39038 ft | 519 kts | 46° |
| 2026-05-03 20:37 | 28.96294 | 127.15978 | 39042 ft | 519 kts | 46° |
| 2026-05-03 20:38 | 29.00831 | 127.22412 | 39042 ft | 520 kts | 46° |
| 2026-05-03 20:38 | 29.05366 | 127.28854 | 39042 ft | 520 kts | 46° |
| 2026-05-03 20:39 | 29.09862 | 127.35250 | 39038 ft | 520 kts | 46° |
| 2026-05-03 20:39 | 29.14395 | 127.41710 | 39036 ft | 520 kts | 46° |
| 2026-05-03 20:40 | 29.18919 | 127.48166 | 39034 ft | 520 kts | 46° |
| 2026-05-03 20:40 | 29.23437 | 127.54625 | 39037 ft | 520 kts | 47° |
| 2026-05-03 20:41 | 29.27952 | 127.61087 | 39031 ft | 520 kts | 47° |
| 2026-05-03 20:41 | 29.32469 | 127.67565 | 39034 ft | 520 kts | 47° |
| 2026-05-03 20:42 | 29.36976 | 127.74038 | 39027 ft | 520 kts | 47° |
| 2026-05-03 20:42 | 29.41480 | 127.80516 | 39033 ft | 519 kts | 47° |
| 2026-05-03 20:43 | 29.45983 | 127.87003 | 39025 ft | 519 kts | 47° |
| 2026-05-03 20:43 | 29.50481 | 127.93494 | 39030 ft | 519 kts | 47° |
| 2026-05-03 20:44 | 29.54951 | 127.99953 | 39029 ft | 518 kts | 47° |
| 2026-05-03 20:44 | 29.59433 | 128.06434 | 39021 ft | 518 kts | 47° |
| 2026-05-03 20:45 | 29.63920 | 128.12930 | 39020 ft | 518 kts | 47° |
| 2026-05-03 20:45 | 29.68392 | 128.19417 | 39021 ft | 517 kts | 47° |
| 2026-05-03 20:46 | 29.72855 | 128.25902 | 39016 ft | 517 kts | 47° |
| 2026-05-03 20:46 | 29.77314 | 128.32392 | 39016 ft | 517 kts | 47° |
| 2026-05-03 20:47 | 29.81773 | 128.38890 | 39011 ft | 517 kts | 47° |
| 2026-05-03 20:47 | 29.86230 | 128.45396 | 39011 ft | 517 kts | 47° |
| 2026-05-03 20:48 | 29.90659 | 128.51871 | 39009 ft | 517 kts | 47° |
| 2026-05-03 20:48 | 29.95111 | 128.58391 | 39008 ft | 518 kts | 47° |
| 2026-05-03 20:49 | 29.99572 | 128.64934 | 39003 ft | 519 kts | 48° |
| 2026-05-03 20:49 | 30.04027 | 128.71480 | 39001 ft | 519 kts | 48° |
| 2026-05-03 20:50 | 30.08486 | 128.78043 | 39000 ft | 519 kts | 48° |
| 2026-05-03 20:50 | 30.12934 | 128.84601 | 38997 ft | 519 kts | 48° |
| 2026-05-03 20:51 | 30.17389 | 128.91178 | 38994 ft | 519 kts | 48° |
| 2026-05-03 20:51 | 30.21840 | 128.97761 | 38993 ft | 519 kts | 48° |
| 2026-05-03 20:52 | 30.26279 | 129.04337 | 38993 ft | 519 kts | 48° |
| 2026-05-03 20:52 | 30.30723 | 129.10932 | 38990 ft | 519 kts | 48° |
| 2026-05-03 20:53 | 30.35167 | 129.17537 | 38985 ft | 520 kts | 49° |
| 2026-05-03 20:53 | 30.39585 | 129.24115 | 38983 ft | 521 kts | 49° |
| 2026-05-03 20:54 | 30.44038 | 129.30756 | 38981 ft | 521 kts | 49° |
| 2026-05-03 20:54 | 30.50717 | 129.40738 | 38981 ft | 522 kts | 49° |
| 2026-05-03 20:55 | 30.55133 | 129.47351 | 38978 ft | 522 kts | 49° |
| 2026-05-03 20:55 | 30.59584 | 129.54029 | 38976 ft | 523 kts | 49° |
| 2026-05-03 20:56 | 30.64051 | 129.60741 | 38976 ft | 524 kts | 49° |
| 2026-05-03 20:56 | 30.68484 | 129.67413 | 38971 ft | 525 kts | 49° |
| 2026-05-03 20:57 | 30.72949 | 129.74145 | 38965 ft | 525 kts | 49° |
| 2026-05-03 20:57 | 30.77414 | 129.80890 | 38966 ft | 525 kts | 49° |
| 2026-05-03 20:58 | 30.81850 | 129.87600 | 38962 ft | 526 kts | 49° |
| 2026-05-03 20:58 | 30.84252 | 129.90774 | 38963 ft | 519 kts | 37° |
| 2026-05-03 20:58 | 30.87020 | 129.93409 | 38964 ft | 512 kts | 30° |
| 2026-05-03 20:59 | 30.92835 | 129.98178 | 38960 ft | 511 kts | 27° |
| 2026-05-03 20:59 | 30.98775 | 130.02749 | 38959 ft | 511 kts | 26° |
| 2026-05-03 21:00 | 31.02759 | 130.05800 | 38957 ft | 512 kts | 26° |
| 2026-05-03 21:00 | 31.10681 | 130.11924 | 38954 ft | 513 kts | 26° |
| 2026-05-03 21:01 | 31.16581 | 130.16522 | 38951 ft | 514 kts | 27° |
| 2026-05-03 21:01 | 31.22521 | 130.21164 | 38945 ft | 515 kts | 27° |
| 2026-05-03 21:02 | 31.28483 | 130.25828 | 38950 ft | 516 kts | 27° |
| 2026-05-03 21:02 | 31.34462 | 130.30512 | 38948 ft | 516 kts | 27° |
| 2026-05-03 21:03 | 31.40428 | 130.35194 | 38941 ft | 517 kts | 27° |
| 2026-05-03 21:03 | 31.46405 | 130.39890 | 38942 ft | 517 kts | 27° |
| 2026-05-03 21:04 | 31.52348 | 130.44567 | 38935 ft | 518 kts | 27° |
| 2026-05-03 21:04 | 31.58337 | 130.49288 | 38939 ft | 518 kts | 27° |
| 2026-05-03 21:05 | 31.64325 | 130.54016 | 38935 ft | 518 kts | 27° |
| 2026-05-03 21:05 | 31.70306 | 130.58727 | 38935 ft | 517 kts | 26° |
| 2026-05-03 21:06 | 31.76390 | 130.63229 | 38935 ft | 516 kts | 24° |
| 2026-05-03 21:06 | 31.82531 | 130.67646 | 38930 ft | 517 kts | 24° |
| 2026-05-03 21:07 | 31.88625 | 130.72050 | 38928 ft | 517 kts | 25° |
| 2026-05-03 21:07 | 31.94742 | 130.76506 | 38929 ft | 517 kts | 25° |
| 2026-05-03 21:08 | 32.00866 | 130.80986 | 38917 ft | 516 kts | 25° |
| 2026-05-03 21:08 | 32.06968 | 130.85458 | 38920 ft | 517 kts | 25° |
| 2026-05-03 21:09 | 32.13088 | 130.89946 | 38916 ft | 518 kts | 25° |
| 2026-05-03 21:09 | 32.19196 | 130.94370 | 38915 ft | 518 kts | 24° |
| 2026-05-03 21:10 | 32.25353 | 130.98805 | 38909 ft | 518 kts | 24° |
| 2026-05-03 21:10 | 32.31498 | 131.03241 | 38901 ft | 517 kts | 24° |
| 2026-05-03 21:11 | 32.37632 | 131.07682 | 38901 ft | 517 kts | 24° |
| 2026-05-03 21:11 | 32.43766 | 131.12152 | 38893 ft | 517 kts | 24° |
| 2026-05-03 21:12 | 32.49865 | 131.16678 | 38891 ft | 518 kts | 24° |
| 2026-05-03 21:12 | 32.55959 | 131.21224 | 38899 ft | 518 kts | 24° |
| 2026-05-03 21:13 | 32.62064 | 131.25779 | 38896 ft | 518 kts | 24° |
| 2026-05-03 21:13 | 32.68175 | 131.30341 | 38885 ft | 519 kts | 24° |
| 2026-05-03 21:14 | 32.73257 | 131.34139 | 38884 ft | 519 kts | 24° |
| 2026-05-03 21:14 | 32.79373 | 131.38716 | 38877 ft | 520 kts | 24° |
| 2026-05-03 21:15 | 32.85504 | 131.43279 | 38880 ft | 520 kts | 24° |
| 2026-05-03 21:15 | 32.91668 | 131.47819 | 38874 ft | 521 kts | 23° |
| 2026-05-03 21:16 | 32.97847 | 131.52371 | 38873 ft | 523 kts | 23° |
| 2026-05-03 21:16 | 33.04003 | 131.56923 | 38861 ft | 524 kts | 23° |
| 2026-05-03 21:17 | 33.10207 | 131.61522 | 38857 ft | 526 kts | 23° |
| 2026-05-03 21:17 | 33.16431 | 131.66145 | 38861 ft | 527 kts | 23° |
| 2026-05-03 21:18 | 33.22744 | 131.70532 | 38850 ft | 516 kts | 14° |
| 2026-05-03 21:18 | 33.29280 | 131.74073 | 38833 ft | 515 kts | 13° |
| 2026-05-03 21:19 | 33.35859 | 131.77453 | 38836 ft | 514 kts | 12° |
| 2026-05-03 21:19 | 33.42449 | 131.80809 | 38832 ft | 515 kts | 12° |
| 2026-05-03 21:20 | 33.48999 | 131.84162 | 38833 ft | 515 kts | 12° |
| 2026-05-03 21:20 | 33.55576 | 131.87550 | 38833 ft | 515 kts | 12° |
| 2026-05-03 21:21 | 33.62158 | 131.90952 | 38834 ft | 515 kts | 12° |
| 2026-05-03 21:21 | 33.68744 | 131.94348 | 38831 ft | 514 kts | 11° |
| 2026-05-03 21:22 | 33.75317 | 131.97740 | 38826 ft | 514 kts | 11° |
| 2026-05-03 21:22 | 33.81888 | 132.01141 | 38824 ft | 513 kts | 11° |
| 2026-05-03 21:23 | 33.88444 | 132.04534 | 38812 ft | 513 kts | 11° |
| 2026-05-03 21:23 | 33.95004 | 132.07937 | 38802 ft | 513 kts | 11° |
| 2026-05-03 21:24 | 34.01514 | 132.11326 | 38798 ft | 513 kts | 11° |
| 2026-05-03 21:24 | 34.08068 | 132.14765 | 38803 ft | 515 kts | 13° |
| 2026-05-03 21:25 | 34.14506 | 132.18702 | 38794 ft | 521 kts | 18° |
| 2026-05-03 21:25 | 34.20885 | 132.22930 | 38799 ft | 523 kts | 18° |
| 2026-05-03 21:26 | 34.27271 | 132.27157 | 38802 ft | 523 kts | 18° |
| 2026-05-03 21:26 | 34.33675 | 132.31343 | 38791 ft | 523 kts | 18° |
| 2026-05-03 21:27 | 34.40043 | 132.35490 | 38791 ft | 523 kts | 17° |
| 2026-05-03 21:27 | 34.46470 | 132.39660 | 38784 ft | 524 kts | 17° |
| 2026-05-03 21:28 | 34.52898 | 132.43826 | 38782 ft | 524 kts | 17° |
| 2026-05-03 21:28 | 34.59321 | 132.47988 | 38783 ft | 524 kts | 17° |
| 2026-05-03 21:29 | 34.65758 | 132.52175 | 38781 ft | 524 kts | 17° |
| 2026-05-03 21:29 | 34.72197 | 132.56375 | 38775 ft | 525 kts | 17° |
| 2026-05-03 21:30 | 34.78639 | 132.60584 | 38773 ft | 526 kts | 17° |
| 2026-05-03 21:30 | 34.85088 | 132.64806 | 38781 ft | 526 kts | 17° |
| 2026-05-03 21:31 | 34.91500 | 132.69009 | 38772 ft | 527 kts | 17° |
| 2026-05-03 21:31 | 34.97966 | 132.73255 | 38763 ft | 527 kts | 18° |
| 2026-05-03 21:32 | 35.04423 | 132.77504 | 38767 ft | 527 kts | 18° |
| 2026-05-03 21:32 | 35.10881 | 132.81759 | 38763 ft | 528 kts | 18° |
| 2026-05-03 21:33 | 35.17356 | 132.86033 | 38747 ft | 528 kts | 18° |
| 2026-05-03 21:33 | 35.23839 | 132.90268 | 38731 ft | 528 kts | 18° |
| 2026-05-03 21:34 | 35.30338 | 132.94482 | 38726 ft | 529 kts | 18° |
| 2026-05-03 21:34 | 35.36842 | 132.98706 | 38722 ft | 530 kts | 18° |
| 2026-05-03 21:35 | 35.43315 | 133.02924 | 38721 ft | 530 kts | 18° |
| 2026-05-03 21:35 | 35.49686 | 133.07599 | 38724 ft | 545 kts | 33° |
| 2026-05-03 21:36 | 35.52408 | 133.10903 | 38725 ft | 554 kts | 49° |
| 2026-05-03 21:36 | 35.54480 | 133.14893 | 38716 ft | 554 kts | 66° |
| 2026-05-03 21:36 | 35.57294 | 133.23700 | 38723 ft | 555 kts | 75° |
| 2026-05-03 21:37 | 35.59699 | 133.32712 | 38721 ft | 555 kts | 75° |
| 2026-05-03 21:37 | 35.62077 | 133.41691 | 38722 ft | 555 kts | 75° |
| 2026-05-03 21:38 | 35.64516 | 133.50700 | 38725 ft | 554 kts | 74° |
| 2026-05-03 21:38 | 35.66964 | 133.59658 | 38731 ft | 552 kts | 75° |
| 2026-05-03 21:39 | 35.69407 | 133.68605 | 38736 ft | 551 kts | 75° |
| 2026-05-03 21:39 | 35.71842 | 133.77561 | 38730 ft | 551 kts | 75° |
| 2026-05-03 21:40 | 35.74262 | 133.86501 | 38726 ft | 550 kts | 75° |
| 2026-05-03 21:40 | 35.76661 | 133.95390 | 38723 ft | 550 kts | 75° |
| 2026-05-03 21:41 | 35.79063 | 134.04325 | 38724 ft | 550 kts | 75° |
| 2026-05-03 21:41 | 35.81463 | 134.13277 | 38719 ft | 549 kts | 75° |
| 2026-05-03 21:42 | 35.83856 | 134.22238 | 38722 ft | 549 kts | 75° |
| 2026-05-03 21:42 | 35.86238 | 134.31187 | 38725 ft | 549 kts | 75° |
| 2026-05-03 21:43 | 35.88600 | 134.40088 | 38727 ft | 549 kts | 76° |
| 2026-05-03 21:43 | 35.90966 | 134.49036 | 38726 ft | 549 kts | 76° |
| 2026-05-03 21:44 | 35.93329 | 134.58005 | 38725 ft | 550 kts | 76° |
| 2026-05-03 21:44 | 35.95692 | 134.67007 | 38724 ft | 551 kts | 76° |
| 2026-05-03 21:45 | 35.98034 | 134.75958 | 38721 ft | 550 kts | 76° |
| 2026-05-03 21:45 | 36.00381 | 134.84958 | 38721 ft | 550 kts | 76° |
| 2026-05-03 21:46 | 36.02720 | 134.93961 | 38719 ft | 550 kts | 76° |
| 2026-05-03 21:46 | 36.05048 | 135.02948 | 38720 ft | 548 kts | 77° |
| 2026-05-03 21:47 | 36.07366 | 135.11925 | 38716 ft | 548 kts | 77° |
| 2026-05-03 21:47 | 36.08520 | 135.16406 | 38500 ft | 545 kts | 77° |
| 2026-05-03 21:47 | 36.09654 | 135.20817 | 37909 ft | 546 kts | 77° |
| 2026-05-03 21:48 | 36.10799 | 135.25285 | 37257 ft | 547 kts | 77° |
| 2026-05-03 21:48 | 36.11953 | 135.29794 | 36607 ft | 549 kts | 77° |
| 2026-05-03 21:48 | 36.13108 | 135.34312 | 35966 ft | 550 kts | 77° |
| 2026-05-03 21:48 | 36.14258 | 135.38818 | 35351 ft | 550 kts | 77° |
| 2026-05-03 21:49 | 36.15411 | 135.43345 | 34757 ft | 551 kts | 77° |
| 2026-05-03 21:49 | 36.16561 | 135.47866 | 34168 ft | 551 kts | 77° |
| 2026-05-03 21:49 | 36.17709 | 135.52389 | 33576 ft | 551 kts | 77° |
| 2026-05-03 21:49 | 36.18874 | 135.56919 | 32928 ft | 552 kts | 74° |
| 2026-05-03 21:50 | 36.20500 | 135.61173 | 32304 ft | 555 kts | 61° |
| 2026-05-03 21:50 | 36.22478 | 135.65278 | 31687 ft | 555 kts | 59° |
| 2026-05-03 21:50 | 36.24504 | 135.69347 | 31078 ft | 553 kts | 59° |
| 2026-05-03 21:50 | 36.26499 | 135.73366 | 30471 ft | 544 kts | 59° |
| 2026-05-03 21:51 | 36.28456 | 135.77338 | 29888 ft | 535 kts | 59° |
| 2026-05-03 21:51 | 36.30375 | 135.81256 | 29229 ft | 527 kts | 59° |
| 2026-05-03 21:51 | 36.32256 | 135.85111 | 28564 ft | 519 kts | 59° |
| 2026-05-03 21:51 | 36.34105 | 135.88911 | 27921 ft | 511 kts | 59° |
| 2026-05-03 21:52 | 36.35923 | 135.92657 | 27284 ft | 504 kts | 59° |
| 2026-05-03 21:52 | 36.37721 | 135.96365 | 26716 ft | 496 kts | 59° |
| 2026-05-03 21:52 | 36.39481 | 136.00001 | 26271 ft | 488 kts | 59° |
| 2026-05-03 21:52 | 36.41228 | 136.03615 | 25845 ft | 485 kts | 59° |
| 2026-05-03 21:53 | 36.42942 | 136.07163 | 25423 ft | 483 kts | 59° |
| 2026-05-03 21:53 | 36.44663 | 136.10732 | 25004 ft | 480 kts | 59° |
| 2026-05-03 21:53 | 36.46375 | 136.14284 | 24594 ft | 477 kts | 59° |
| 2026-05-03 21:53 | 36.48072 | 136.17810 | 24186 ft | 475 kts | 59° |
| 2026-05-03 21:54 | 36.49763 | 136.21326 | 23788 ft | 472 kts | 59° |
| 2026-05-03 21:54 | 36.51442 | 136.24821 | 23389 ft | 470 kts | 59° |
| 2026-05-03 21:54 | 36.52990 | 136.28381 | 22939 ft | 466 kts | 72° |
| 2026-05-03 21:54 | 36.53669 | 136.32236 | 22469 ft | 450 kts | 95° |
| 2026-05-03 21:55 | 36.53340 | 136.35994 | 21980 ft | 425 kts | 117° |
| 2026-05-03 21:55 | 36.52114 | 136.39151 | 21529 ft | 391 kts | 141° |
| 2026-05-03 21:55 | 36.50232 | 136.41340 | 21075 ft | 351 kts | 164° |
| 2026-05-03 21:55 | 36.48080 | 136.42286 | 20628 ft | 311 kts | 188° |
| 2026-05-03 21:56 | 36.46087 | 136.41987 | 20204 ft | 281 kts | 209° |
| 2026-05-03 21:56 | 36.44382 | 136.40922 | 19771 ft | 270 kts | 219° |
| 2026-05-03 21:56 | 36.42938 | 136.39477 | 19348 ft | 263 kts | 229° |
| 2026-05-03 21:56 | 36.41779 | 136.37746 | 18908 ft | 260 kts | 236° |
| 2026-05-03 21:57 | 36.40914 | 136.35788 | 18512 ft | 258 kts | 245° |
| 2026-05-03 21:57 | 36.40339 | 136.33672 | 18107 ft | 258 kts | 250° |
| 2026-05-03 21:57 | 36.39850 | 136.31536 | 17654 ft | 256 kts | 250° |
| 2026-05-03 21:57 | 36.39380 | 136.29408 | 17183 ft | 255 kts | 250° |
| 2026-05-03 21:58 | 36.38923 | 136.27288 | 16733 ft | 254 kts | 250° |
| 2026-05-03 21:58 | 36.38449 | 136.25169 | 16287 ft | 254 kts | 250° |
| 2026-05-03 21:58 | 36.37939 | 136.23071 | 15819 ft | 253 kts | 249° |
| 2026-05-03 21:58 | 36.37418 | 136.20982 | 15387 ft | 253 kts | 250° |
| 2026-05-03 21:59 | 36.37109 | 136.18839 | 14955 ft | 257 kts | 260° |
| 2026-05-03 21:59 | 36.37252 | 136.16596 | 14527 ft | 266 kts | 274° |
| 2026-05-03 21:59 | 36.37940 | 136.14412 | 14101 ft | 280 kts | 289° |
| 2026-05-03 21:59 | 36.39197 | 136.12477 | 13691 ft | 299 kts | 306° |
| 2026-05-03 22:00 | 36.41012 | 136.11052 | 13240 ft | 321 kts | 326° |
| 2026-05-03 22:00 | 36.43237 | 136.10479 | 12773 ft | 344 kts | 351° |
| 2026-05-03 22:00 | 36.45634 | 136.11088 | 12318 ft | 363 kts | 19° |
| 2026-05-03 22:00 | 36.47677 | 136.12960 | 11862 ft | 369 kts | 49° |
| 2026-05-03 22:01 | 36.48980 | 136.15673 | 11415 ft | 365 kts | 68° |
| 2026-05-03 22:01 | 36.49943 | 136.18595 | 10815 ft | 363 kts | 71° |
| 2026-05-03 22:01 | 36.50857 | 136.21500 | 10207 ft | 358 kts | 71° |
| 2026-05-03 22:01 | 36.51778 | 136.24361 | 9610 ft | 353 kts | 70° |
| 2026-05-03 22:02 | 36.52695 | 136.27167 | 8957 ft | 347 kts | 72° |
| 2026-05-03 22:02 | 36.53170 | 136.29043 | 8522 ft | 341 kts | 78° |
| 2026-05-03 22:02 | 36.53874 | 136.31828 | 7967 ft | 334 kts | 74° |
| 2026-05-03 22:02 | 36.54821 | 136.35404 | 7297 ft | 323 kts | 74° |
| 2026-05-03 22:03 | 36.55509 | 136.38034 | 6802 ft | 316 kts | 74° |
| 2026-05-03 22:03 | 36.56177 | 136.40608 | 6316 ft | 310 kts | 75° |
| 2026-05-03 22:03 | 36.56621 | 136.42325 | 5961 ft | 306 kts | 74° |
| 2026-05-03 22:03 | 36.57258 | 136.44793 | 5464 ft | 300 kts | 74° |
| 2026-05-03 22:04 | 36.57853 | 136.47265 | 4961 ft | 295 kts | 77° |
| 2026-05-03 22:04 | 36.58373 | 136.49714 | 4467 ft | 292 kts | 77° |
| 2026-05-03 22:04 | 36.58866 | 136.52159 | 3952 ft | 289 kts | 80° |
| 2026-05-03 22:04 | 36.58930 | 136.54602 | 3427 ft | 278 kts | 108° |
| 2026-05-03 22:05 | 36.58071 | 136.56627 | 2933 ft | 257 kts | 142° |
| 2026-05-03 22:05 | 36.56668 | 136.57721 | 2648 ft | 229 kts | 168° |
| 2026-05-03 22:05 | 36.55216 | 136.58275 | 2537 ft | 208 kts | 174° |
| 2026-05-03 22:05 | 36.53863 | 136.58697 | 2613 ft | 192 kts | 175° |
| 2026-05-03 22:06 | 36.52608 | 136.59075 | 2598 ft | 182 kts | 176° |
| 2026-05-03 22:06 | 36.51387 | 136.59245 | 2602 ft | 169 kts | 190° |
| 2026-05-03 22:06 | 36.50290 | 136.58977 | 2605 ft | 155 kts | 207° |
| 2026-05-03 22:06 | 36.49379 | 136.58310 | 2515 ft | 150 kts | 224° |
| 2026-05-03 22:07 | 36.48692 | 136.57351 | 2506 ft | 149 kts | 235° |
| 2026-05-03 22:07 | 36.48094 | 136.56302 | 2495 ft | 148 kts | 237° |
| 2026-05-03 22:07 | 36.47517 | 136.55261 | 2395 ft | 143 kts | 237° |
| 2026-05-03 22:07 | 36.46964 | 136.54268 | 2102 ft | 134 kts | 237° |
| 2026-05-03 22:08 | 36.46464 | 136.53373 | 1906 ft | 119 kts | 237° |
| 2026-05-03 22:08 | 36.46016 | 136.52573 | 1661 ft | 110 kts | 237° |
| 2026-05-03 22:08 | 36.45594 | 136.51816 | 1635 ft | 107 kts | 237° |
| 2026-05-03 22:08 | 36.45168 | 136.51054 | 1682 ft | 108 kts | 237° |
| 2026-05-03 22:09 | 36.44739 | 136.50285 | 1628 ft | 109 kts | 237° |
| 2026-05-03 22:09 | 36.44306 | 136.49513 | 1457 ft | 108 kts | 237° |
| 2026-05-03 22:09 | 36.43876 | 136.48743 | 1341 ft | 108 kts | 238° |
| 2026-05-03 22:10 | 36.43005 | 136.47184 | 1067 ft | 113 kts | 236° |
| 2026-05-03 22:10 | 36.42540 | 136.46381 | 912 ft | 114 kts | 235° |
| 2026-05-03 22:10 | 36.42072 | 136.45583 | 714 ft | 115 kts | 236° |
| 2026-05-03 22:10 | 36.41613 | 136.44745 | 612 ft | 119 kts | 235° |
| 2026-05-03 22:11 | 36.41156 | 136.43881 | 422 ft | 120 kts | 233° |
| 2026-05-03 22:11 | 36.40667 | 136.43047 | 251 ft | 120 kts | 233° |
| 2026-05-03 22:11 | 36.40198 | 136.42196 | 95 ft | 119 kts | 233° |
| 2026-05-03 22:11 | 36.39755 | 136.41400 | 34 ft | 91 kts | 237° |
| 2026-05-03 22:12 | 36.39488 | 136.40924 | 37 ft | 58 kts | 236° |
| 2026-05-03 22:12 | 36.39278 | 136.40545 | 33 ft | 51 kts | 234° |
| 2026-05-03 22:12 | 36.39096 | 136.40212 | 30 ft | 27 kts | 237° |
| 2026-05-03 22:12 | 36.39094 | 136.40114 | 30 ft | 11 kts | 327° |
| 2026-05-03 22:13 | 36.39167 | 136.40055 | 30 ft | 14 kts | 324° |
| 2026-05-03 22:13 | 36.39240 | 136.40012 | 29 ft | 8 kts | 17° |
| 2026-05-03 22:13 | 36.39273 | 136.40054 | 30 ft | 8 kts | 57° |
| 2026-05-03 22:13 | 36.39312 | 136.40123 | 29 ft | 14 kts | 55° |
| 2026-05-03 22:14 | 36.39383 | 136.40254 | 29 ft | 22 kts | 56° |
| 2026-05-03 22:14 | 36.39464 | 136.40398 | 32 ft | 18 kts | 52° |
| 2026-05-03 22:14 | 36.39533 | 136.40525 | 33 ft | 17 kts | 56° |
| 2026-05-03 22:14 | 36.39600 | 136.40645 | 34 ft | 17 kts | 56° |
| 2026-05-03 22:15 | 36.39666 | 136.40764 | 33 ft | 17 kts | 55° |
| 2026-05-03 22:15 | 36.39735 | 136.40888 | 32 ft | 18 kts | 55° |
| 2026-05-03 22:15 | 36.39806 | 136.41016 | 30 ft | 19 kts | 55° |
| 2026-05-03 22:15 | 36.39884 | 136.41156 | 28 ft | 20 kts | 55° |
| 2026-05-03 22:16 | 36.39960 | 136.41293 | 29 ft | 19 kts | 55° |
| 2026-05-03 22:16 | 36.40025 | 136.41410 | 30 ft | 9 kts | 56° |
| 2026-05-03 22:16 | 36.40058 | 136.41470 | 31 ft | 7 kts | 56° |
| 2026-05-03 22:16 | 36.40066 | 136.41485 | 31 ft | 1 kts | 56° |
| 2026-05-03 22:17 | 36.40071 | 136.41493 | 32 ft | 2 kts | 47° |
| 2026-05-03 22:17 | 36.40090 | 136.41492 | 31 ft | 2 kts | 317° |
| 2026-05-03 22:17 | 36.40118 | 136.41466 | 30 ft | 5 kts | 326° |
| 2026-05-03 22:17 | 36.40143 | 136.41444 | 29 ft | 0 kts | 325° |
| 2026-05-03 22:18 | 36.40146 | 136.41441 | 29 ft | 0 kts | 325° |